createdAt,value
2023-01-26T00:00:53.023Z,23.83
2023-01-26T00:03:20.327Z,21.27
2023-01-26T00:05:46.783Z,21.48
2023-01-26T00:08:13.645Z,22.98
2023-01-26T00:10:41.569Z,21.67
2023-01-26T00:13:10.140Z,22.48
2023-01-26T00:15:36.845Z,23.63
2023-01-26T00:18:03.613Z,23.60
2023-01-26T00:20:30.415Z,21.88
2023-01-26T00:22:56.825Z,23.75
2023-01-26T00:25:23.220Z,24.38
2023-01-26T00:27:49.657Z,23.48
2023-01-26T00:30:16.575Z,22.50
2023-01-26T00:32:43.239Z,22.58
2023-01-26T00:35:09.793Z,24.30
2023-01-26T00:37:36.348Z,21.73
2023-01-26T00:40:02.756Z,24.50
2023-01-26T00:42:29.170Z,24.48
2023-01-26T00:44:56.699Z,24.05
2023-01-26T00:47:23.143Z,23.25
2023-01-26T00:49:49.726Z,25.58
2023-01-26T00:52:16.163Z,26.10
2023-01-26T00:54:42.613Z,25.08
2023-01-26T00:57:09.576Z,25.77
2023-01-26T00:59:36.085Z,24.92
2023-01-26T01:02:02.757Z,24.98
2023-01-26T01:04:32.757Z,26.10
2023-01-26T01:07:00.349Z,26.10
2023-01-26T01:09:26.839Z,23.98
2023-01-26T01:11:53.252Z,26.73
2023-01-26T01:14:19.639Z,24.80
2023-01-26T01:16:46.610Z,25.88
2023-01-26T01:19:15.372Z,27.05
2023-01-26T01:21:43.016Z,25.88
2023-01-26T01:24:10.979Z,26.83
2023-01-26T01:26:38.535Z,26.67
2023-01-26T01:29:05.851Z,22.77
2023-01-26T01:31:32.317Z,26.65
2023-01-26T01:33:58.803Z,25.30
2023-01-26T01:36:25.758Z,24.10
2023-01-26T01:38:52.284Z,24.70
2023-01-26T01:41:22.681Z,23.15
2023-01-26T01:43:50.696Z,23.67
2023-01-26T01:46:35.564Z,23.95
2023-01-26T01:49:11.024Z,22.52
2023-01-26T01:51:43.863Z,23.08
2023-01-26T01:54:15.301Z,22.85
2023-01-26T01:59:12.480Z,21.67
2023-01-26T02:01:38.901Z,22.88
2023-01-26T02:04:07.373Z,23.80
2023-01-26T02:06:59.240Z,22.08
2023-01-26T02:09:52.445Z,21.90
2023-01-26T02:12:23.006Z,22.70
2023-01-26T02:14:51.831Z,21.88
2023-01-26T02:17:18.260Z,21.02
2023-01-26T02:19:58.262Z,20.92
2023-01-26T02:22:57.962Z,15.77
2023-01-26T02:25:56.068Z,19.52
2023-01-26T02:28:25.784Z,18.88
2023-01-26T02:30:54.052Z,18.92
2023-01-26T02:33:23.027Z,16.38
2023-01-26T02:35:49.799Z,17.88
2023-01-26T02:38:18.287Z,18.10
2023-01-26T02:40:53.341Z,17.27
2023-01-26T02:43:20.045Z,16.38
2023-01-26T02:45:46.501Z,17.13
2023-01-26T02:48:13.011Z,15.30
2023-01-26T02:50:40.164Z,17.25
2023-01-26T02:53:06.605Z,18.15
2023-01-26T02:55:33.016Z,17.20
2023-01-26T02:58:02.530Z,16.85
2023-01-26T03:03:01.500Z,17.83
2023-01-26T03:05:29.783Z,13.25
2023-01-26T03:07:56.316Z,16.70
2023-01-26T03:10:26.988Z,17.40
2023-01-26T03:12:53.521Z,17.85
2023-01-26T03:15:42.635Z,18.45
2023-01-26T03:18:36.049Z,19.60
2023-01-26T03:21:24.794Z,18.15
2023-01-26T03:24:10.339Z,18.65
2023-01-26T03:26:55.740Z,18.63
2023-01-26T03:29:22.445Z,20.65
2023-01-26T03:31:49.865Z,19.25
2023-01-26T03:34:17.184Z,17.98
2023-01-26T03:36:45.307Z,18.67
2023-01-26T03:39:34.587Z,19.98
2023-01-26T03:42:21.276Z,19.25
2023-01-26T03:45:06.259Z,18.13
2023-01-26T03:47:52.344Z,18.40
2023-01-26T03:50:38.357Z,18.52
2023-01-26T03:53:38.814Z,18.30
2023-01-26T03:56:18.262Z,17.45
2023-01-26T03:58:47.655Z,17.02
2023-01-26T04:01:21.653Z,16.73
2023-01-26T04:04:10.662Z,19.10
2023-01-26T04:06:57.935Z,17.55
2023-01-26T04:09:24.452Z,18.02
2023-01-26T04:11:51.107Z,16.75
2023-01-26T04:14:49.416Z,17.55
2023-01-26T04:17:37.486Z,17.38
2023-01-26T04:20:24.369Z,17.10
2023-01-26T04:22:51.130Z,16.92
2023-01-26T04:25:20.226Z,17.20
2023-01-26T04:27:47.115Z,16.83
2023-01-26T04:30:16.083Z,14.65
2023-01-26T04:32:43.756Z,15.20
2023-01-26T04:35:10.484Z,16.25
2023-01-26T04:37:38.268Z,17.08
2023-01-26T04:40:06.563Z,14.82
2023-01-26T04:42:34.703Z,14.43
2023-01-26T04:45:03.124Z,14.45
2023-01-26T04:47:30.554Z,14.82
2023-01-26T04:49:57.216Z,14.07
2023-01-26T04:52:23.968Z,14.48
2023-01-26T04:54:50.872Z,15.00
2023-01-26T04:57:20.207Z,14.55
2023-01-26T04:59:49.220Z,14.10
2023-01-26T05:02:15.821Z,12.85
2023-01-26T05:04:42.348Z,13.02
2023-01-26T05:07:08.792Z,13.50
2023-01-26T05:09:37.171Z,13.65
2023-01-26T05:12:33.396Z,12.80
2023-01-26T05:15:29.224Z,12.50
2023-01-26T05:18:10.838Z,8.97
2023-01-26T05:20:43.643Z,13.88
2023-01-26T05:23:18.148Z,12.93
2023-01-26T05:26:04.308Z,13.18
2023-01-26T05:28:37.877Z,13.55
2023-01-26T05:31:04.474Z,13.15
2023-01-26T05:33:30.930Z,12.27
2023-01-26T05:36:05.168Z,13.48
2023-01-26T05:38:32.278Z,11.80
2023-01-26T05:40:59.309Z,12.65
2023-01-26T05:43:25.988Z,13.00
2023-01-26T05:46:08.520Z,13.38
2023-01-26T05:48:35.072Z,13.60
2023-01-26T05:51:03.946Z,15.65
2023-01-26T05:53:32.275Z,16.02
2023-01-26T05:55:58.833Z,15.02
2023-01-26T05:58:26.967Z,15.80
2023-01-26T06:00:54.129Z,14.95
2023-01-26T06:03:25.427Z,15.45
2023-01-26T06:05:55.571Z,14.85
2023-01-26T06:08:35.719Z,15.95
2023-01-26T06:11:22.109Z,15.30
2023-01-26T06:14:00.128Z,13.52
2023-01-26T06:16:28.269Z,15.23
2023-01-26T06:18:55.606Z,14.82
2023-01-26T06:21:22.708Z,14.88
2023-01-26T06:23:49.515Z,14.75
2023-01-26T06:26:16.199Z,14.68
2023-01-26T06:28:43.246Z,14.98
2023-01-26T06:31:10.754Z,13.70
2023-01-26T06:33:38.855Z,13.95
2023-01-26T06:36:10.387Z,14.88
2023-01-26T06:38:37.899Z,15.10
2023-01-26T06:41:07.273Z,17.40
2023-01-26T06:43:35.395Z,17.45
2023-01-26T06:46:03.782Z,17.00
2023-01-26T06:48:33.631Z,17.27
2023-01-26T06:51:25.873Z,17.45
2023-01-26T06:53:57.270Z,15.13
2023-01-26T06:56:36.989Z,15.50
2023-01-26T06:59:22.203Z,15.45
2023-01-26T07:02:19.605Z,17.23
2023-01-26T07:04:47.159Z,14.05
2023-01-26T07:07:13.632Z,14.32
2023-01-26T07:09:40.062Z,14.52
2023-01-26T07:12:06.519Z,14.13
2023-01-26T07:14:33.235Z,13.88
2023-01-26T07:16:59.643Z,13.63
2023-01-26T07:19:26.126Z,14.38
2023-01-26T07:21:52.532Z,13.10
2023-01-26T07:24:21.743Z,14.65
2023-01-26T07:26:48.292Z,13.35
2023-01-26T07:29:14.700Z,14.05
2023-01-26T07:31:41.661Z,15.07
2023-01-26T07:34:09.484Z,12.75
2023-01-26T07:36:35.910Z,13.40
2023-01-26T07:39:02.429Z,12.93
2023-01-26T07:41:28.825Z,12.48
2023-01-26T07:43:57.118Z,14.30
2023-01-26T07:46:24.569Z,13.73
2023-01-26T07:48:51.209Z,13.38
2023-01-26T07:51:17.591Z,12.82
2023-01-26T07:53:45.206Z,15.13
2023-01-26T07:56:14.366Z,13.88
2023-01-26T07:58:41.049Z,13.60
2023-01-26T08:01:15.016Z,13.88
2023-01-26T08:03:42.224Z,13.13
2023-01-26T08:06:11.679Z,14.60
2023-01-26T08:08:41.803Z,13.07
2023-01-26T08:11:10.017Z,12.55
2023-01-26T08:13:36.487Z,14.43
2023-01-26T08:16:12.547Z,11.90
2023-01-26T08:18:43.596Z,11.40
2023-01-26T08:21:11.240Z,9.85
2023-01-26T08:23:37.653Z,9.77
2023-01-26T08:26:06.843Z,11.35
2023-01-26T08:28:34.313Z,11.05
2023-01-26T08:31:08.487Z,11.23
2023-01-26T08:33:35.039Z,9.07
2023-01-26T08:36:06.204Z,8.40
2023-01-26T08:41:00.821Z,8.60
2023-01-26T08:43:27.825Z,9.95
2023-01-26T08:45:54.612Z,8.55
2023-01-26T08:48:21.108Z,8.90
2023-01-26T08:50:47.678Z,9.85
2023-01-26T08:53:14.293Z,9.40
2023-01-26T08:55:40.689Z,9.13
2023-01-26T08:58:07.075Z,9.20
2023-01-26T09:00:34.149Z,10.05
2023-01-26T09:03:05.496Z,9.85
2023-01-26T09:05:34.602Z,9.90
2023-01-26T09:08:01.308Z,10.40
2023-01-26T09:10:27.885Z,9.90
2023-01-26T09:12:54.313Z,11.80
2023-01-26T09:15:20.857Z,9.65
2023-01-26T09:17:50.655Z,9.68
2023-01-26T09:20:18.230Z,10.02
2023-01-26T09:22:45.048Z,11.70
2023-01-26T09:25:12.512Z,10.18
2023-01-26T09:27:39.115Z,10.30
2023-01-26T09:30:07.043Z,10.88
2023-01-26T09:32:33.682Z,10.00
2023-01-26T09:35:00.230Z,10.70
2023-01-26T09:37:26.630Z,10.68
2023-01-26T09:39:53.039Z,10.43
2023-01-26T09:42:43.465Z,11.20
2023-01-26T09:45:13.196Z,11.17
2023-01-26T09:48:02.958Z,11.23
2023-01-26T09:50:54.113Z,10.95
2023-01-26T09:53:26.979Z,9.95
2023-01-26T09:55:55.536Z,11.13
2023-01-26T09:58:36.088Z,10.80
2023-01-26T10:01:04.447Z,9.40
2023-01-26T10:03:41.528Z,10.93
2023-01-26T10:06:22.896Z,11.60
2023-01-26T10:09:22.400Z,9.35
2023-01-26T10:11:54.240Z,12.50
2023-01-26T10:14:35.968Z,12.27
2023-01-26T10:17:06.099Z,9.98
2023-01-26T10:19:54.971Z,10.60
2023-01-26T10:22:31.818Z,10.15
2023-01-26T10:24:59.667Z,10.18
2023-01-26T10:27:28.261Z,9.40
2023-01-26T10:29:54.727Z,9.75
2023-01-26T10:32:21.449Z,9.50
2023-01-26T10:34:50.541Z,9.13
2023-01-26T10:37:29.596Z,9.07
2023-01-26T10:40:09.535Z,8.38
2023-01-26T10:42:37.427Z,7.85
2023-01-26T10:45:07.164Z,8.65
2023-01-26T10:47:33.597Z,7.72
2023-01-26T10:50:21.434Z,7.93
2023-01-26T10:52:59.904Z,7.60
2023-01-26T10:55:27.131Z,8.07
2023-01-26T10:57:53.559Z,7.10
2023-01-26T11:00:33.184Z,7.80
2023-01-26T11:03:17.626Z,8.57
2023-01-26T11:05:47.889Z,7.30
2023-01-26T11:08:37.182Z,6.07
2023-01-26T11:11:06.800Z,8.18
2023-01-26T11:13:33.332Z,8.43
2023-01-26T11:16:13.520Z,8.35
2023-01-26T11:19:07.139Z,6.97
2023-01-26T11:21:41.500Z,9.05
2023-01-26T11:24:27.076Z,9.00
2023-01-26T11:27:17.637Z,9.25
2023-01-26T11:30:14.078Z,7.03
2023-01-26T11:32:58.972Z,9.57
2023-01-26T11:35:39.439Z,10.63
2023-01-26T11:38:32.438Z,9.57
2023-01-26T11:41:23.068Z,8.30
2023-01-26T11:44:07.817Z,8.80
2023-01-26T11:46:51.056Z,9.80
2023-01-26T11:49:37.739Z,9.57
2023-01-26T11:52:17.134Z,11.13
2023-01-26T11:55:01.273Z,10.68
2023-01-26T11:57:55.684Z,11.00
2023-01-26T12:00:40.113Z,10.95
2023-01-26T12:03:17.332Z,10.40
2023-01-26T12:05:48.511Z,10.25
2023-01-26T12:10:57.148Z,10.50
2023-01-26T12:13:40.946Z,9.98
2023-01-26T12:16:17.996Z,12.18
2023-01-26T12:19:10.101Z,10.93
2023-01-26T12:21:41.157Z,10.95
2023-01-26T12:24:36.033Z,11.10
2023-01-26T12:27:05.095Z,10.75
2023-01-26T12:29:45.238Z,11.35
2023-01-26T12:32:13.469Z,11.25
2023-01-26T12:34:39.962Z,11.40
2023-01-26T12:37:47.635Z,11.63
2023-01-26T12:40:44.210Z,11.90
2023-01-26T12:43:33.871Z,12.48
2023-01-26T12:46:02.753Z,12.68
2023-01-26T12:48:41.875Z,13.55
2023-01-26T12:51:14.169Z,15.00
2023-01-26T12:53:43.185Z,15.45
2023-01-26T12:56:21.984Z,14.85
2023-01-26T12:58:51.456Z,15.45
2023-01-26T13:01:21.359Z,15.40
2023-01-26T13:03:59.165Z,14.30
2023-01-26T13:06:26.945Z,14.77
2023-01-26T13:09:25.555Z,14.48
2023-01-26T13:11:59.935Z,12.18
2023-01-26T13:14:43.027Z,12.02
2023-01-26T13:17:15.414Z,12.18
2023-01-26T13:19:41.771Z,11.10
2023-01-26T13:22:26.288Z,8.95
2023-01-26T13:24:55.653Z,10.25
2023-01-26T13:27:45.523Z,11.38
2023-01-26T13:30:24.118Z,10.85
2023-01-26T13:32:50.493Z,11.10
2023-01-26T13:35:20.583Z,9.50
2023-01-26T13:37:59.184Z,10.55
2023-01-26T13:40:35.891Z,12.88
2023-01-26T13:43:26.141Z,12.38
2023-01-26T13:46:03.572Z,10.18
2023-01-26T13:48:41.751Z,12.98
2023-01-26T13:51:12.605Z,13.55
2023-01-26T13:53:41.599Z,14.75
2023-01-26T13:56:21.945Z,15.52
2023-01-26T13:58:48.393Z,16.50
2023-01-26T14:01:15.225Z,15.50
2023-01-26T14:03:41.618Z,16.63
2023-01-26T14:06:20.342Z,17.23
2023-01-26T14:08:54.306Z,17.33
2023-01-26T14:11:24.486Z,15.80
2023-01-26T14:13:53.384Z,12.63
2023-01-26T14:16:37.201Z,15.57
2023-01-26T14:19:23.983Z,15.30
2023-01-26T14:22:00.146Z,14.55
2023-01-26T14:24:29.488Z,14.77
2023-01-26T14:26:56.115Z,15.60
2023-01-26T14:29:25.797Z,15.55
2023-01-26T14:31:54.689Z,16.23
2023-01-26T14:34:24.295Z,17.75
2023-01-26T14:37:17.427Z,15.40
2023-01-26T14:39:47.752Z,16.67
2023-01-26T14:42:17.214Z,17.75
2023-01-26T14:44:44.024Z,17.83
2023-01-26T14:47:30.186Z,17.60
2023-01-26T14:50:01.350Z,19.27
2023-01-26T14:52:33.713Z,18.33
2023-01-26T14:55:13.561Z,17.55
2023-01-26T14:57:39.967Z,16.80
2023-01-26T15:00:10.099Z,18.58
2023-01-26T15:02:42.730Z,19.48
2023-01-26T15:05:13.586Z,18.20
2023-01-26T15:07:56.915Z,18.67
2023-01-26T15:10:43.644Z,20.05
2023-01-26T15:13:09.979Z,20.08
2023-01-26T15:15:41.631Z,19.50
2023-01-26T15:18:14.020Z,20.85
2023-01-26T15:20:41.950Z,21.75
2023-01-26T15:23:27.553Z,19.80
2023-01-26T15:25:54.488Z,21.17
2023-01-26T15:28:25.986Z,22.67
2023-01-26T15:30:55.820Z,20.92
2023-01-26T15:33:49.706Z,21.50
2023-01-26T15:36:27.992Z,19.90
2023-01-26T15:39:00.752Z,20.80
2023-01-26T15:41:28.116Z,19.98
2023-01-26T15:43:54.532Z,21.63
2023-01-26T15:46:20.995Z,21.65
2023-01-26T15:48:48.454Z,22.30
2023-01-26T15:51:15.500Z,21.35
2023-01-26T15:53:42.069Z,19.80
2023-01-26T15:56:13.457Z,21.67
2023-01-26T15:58:40.324Z,22.40
2023-01-26T16:01:08.053Z,20.60
2023-01-26T16:03:34.463Z,22.05
2023-01-26T16:06:00.931Z,22.63
2023-01-26T16:08:27.351Z,21.10
2023-01-26T16:10:56.705Z,22.75
2023-01-26T16:13:23.178Z,21.80
2023-01-26T16:15:52.549Z,22.88
2023-01-26T16:18:20.035Z,22.15
2023-01-26T16:20:48.400Z,31.73
2023-01-26T16:23:21.040Z,24.23
2023-01-26T16:25:48.800Z,22.50
2023-01-26T16:28:15.512Z,21.63
2023-01-26T16:30:42.747Z,22.23
2023-01-26T16:33:12.525Z,21.20
2023-01-26T16:35:38.998Z,21.35
2023-01-26T16:38:07.268Z,20.85
2023-01-26T16:40:34.010Z,18.90
2023-01-26T16:43:01.654Z,18.92
2023-01-26T16:45:28.161Z,21.27
2023-01-26T16:47:56.393Z,18.42
2023-01-26T16:50:24.112Z,19.48
2023-01-26T16:52:51.134Z,21.73
2023-01-26T16:55:18.612Z,22.83
2023-01-26T16:57:46.703Z,21.05
2023-01-26T17:00:16.465Z,20.52
2023-01-26T17:02:44.488Z,19.90
2023-01-26T17:05:15.577Z,18.85
2023-01-26T17:10:09.706Z,17.58
2023-01-26T17:12:36.139Z,20.55
2023-01-26T17:15:05.175Z,23.60
2023-01-26T17:17:31.606Z,25.85
2023-01-26T17:20:16.663Z,21.55
2023-01-26T17:22:44.599Z,21.05
2023-01-26T17:25:11.658Z,21.27
2023-01-26T17:27:39.133Z,22.48
2023-01-26T17:30:06.014Z,20.38
2023-01-26T17:32:32.700Z,21.98
2023-01-26T17:34:59.095Z,22.30
2023-01-26T17:37:29.245Z,21.88
2023-01-26T17:43:46.147Z,20.08
2023-01-26T17:46:14.986Z,18.55
2023-01-26T17:48:44.180Z,20.13
2023-01-26T17:51:17.642Z,20.85
2023-01-26T17:53:46.334Z,21.27
2023-01-26T17:56:16.287Z,20.27
2023-01-26T17:58:43.101Z,22.55
2023-01-26T18:01:10.135Z,22.67
2023-01-26T18:03:40.730Z,24.17
2023-01-26T18:06:07.409Z,24.80
2023-01-26T18:08:33.825Z,28.58
2023-01-26T18:11:02.196Z,24.52
2023-01-26T18:13:29.455Z,25.45
2023-01-26T18:15:55.966Z,27.00
2023-01-26T18:18:24.001Z,26.30
2023-01-26T18:20:50.729Z,25.35
2023-01-26T18:23:17.466Z,22.98
2023-01-26T18:25:44.480Z,22.85
2023-01-26T18:28:11.681Z,21.10
2023-01-26T18:30:38.561Z,22.85
2023-01-26T18:33:05.678Z,21.40
2023-01-26T18:35:34.114Z,19.40
2023-01-26T18:38:01.278Z,20.92
2023-01-26T18:40:27.733Z,20.50
2023-01-26T18:42:55.418Z,21.83
2023-01-26T18:45:22.715Z,20.45
2023-01-26T18:47:50.118Z,21.02
2023-01-26T18:50:17.376Z,20.00
2023-01-26T18:52:43.853Z,20.92
2023-01-26T18:55:11.301Z,21.75
2023-01-26T18:57:38.035Z,21.27
2023-01-26T19:00:06.225Z,21.83
2023-01-26T19:02:33.727Z,19.23
2023-01-26T19:05:00.397Z,20.27
2023-01-26T19:07:26.840Z,20.42
2023-01-26T19:09:53.254Z,20.13
2023-01-26T19:12:19.636Z,19.75
2023-01-26T19:14:46.042Z,20.73
2023-01-26T19:17:12.548Z,20.00
2023-01-26T19:19:40.962Z,20.83
2023-01-26T19:22:07.780Z,20.40
2023-01-26T19:24:34.244Z,22.02
2023-01-26T19:27:00.692Z,23.00
2023-01-26T19:29:27.207Z,21.23
2023-01-26T19:31:53.678Z,20.55
2023-01-26T19:34:20.130Z,19.23
2023-01-26T19:36:46.831Z,19.75
2023-01-26T19:39:13.720Z,21.00
2023-01-26T19:41:40.280Z,21.23
2023-01-26T19:44:07.033Z,21.05
2023-01-26T19:46:33.751Z,21.98
2023-01-26T19:49:00.442Z,20.50
2023-01-26T19:51:27.336Z,22.38
2023-01-26T19:53:55.772Z,21.33
2023-01-26T19:56:24.823Z,24.10
2023-01-26T19:58:53.659Z,23.55
2023-01-26T20:01:21.052Z,22.15
2023-01-26T20:03:52.509Z,21.15
2023-01-26T20:06:21.365Z,21.27
2023-01-26T20:08:48.188Z,22.58
2023-01-26T20:11:14.859Z,23.20
2023-01-26T20:13:41.513Z,24.55
2023-01-26T20:16:08.231Z,22.05
2023-01-26T20:18:36.591Z,23.50
2023-01-26T20:21:03.522Z,23.15
2023-01-26T20:23:30.041Z,22.73
2023-01-26T20:26:08.830Z,20.92
2023-01-26T20:28:36.026Z,20.85
2023-01-26T20:31:15.592Z,22.52
2023-01-26T20:33:43.820Z,21.95
2023-01-26T20:36:16.582Z,22.92
2023-01-26T20:38:43.825Z,23.73
2023-01-26T20:41:13.471Z,23.88
2023-01-26T20:43:49.473Z,23.70
2023-01-26T20:46:23.727Z,21.90
2023-01-26T20:48:50.846Z,22.55
2023-01-26T20:51:23.450Z,22.45
2023-01-26T20:53:51.022Z,23.15
2023-01-26T20:56:20.362Z,22.15
2023-01-26T20:58:47.159Z,22.40
2023-01-26T21:01:16.411Z,22.95
2023-01-26T21:03:43.611Z,23.42
2023-01-26T21:06:12.387Z,24.00
2023-01-26T21:08:39.778Z,22.27
2023-01-26T21:11:08.429Z,22.17
2023-01-26T21:13:35.459Z,22.75
2023-01-26T21:16:02.539Z,21.95
2023-01-26T21:18:28.950Z,21.60
2023-01-26T21:21:05.884Z,22.38
2023-01-26T21:23:34.461Z,21.05
2023-01-26T21:26:03.316Z,20.23
2023-01-26T21:28:30.651Z,21.48
2023-01-26T21:31:11.546Z,19.50
2023-01-26T21:33:40.426Z,18.23
2023-01-26T21:36:08.253Z,22.80
2023-01-26T21:38:37.104Z,19.52
2023-01-26T21:41:26.541Z,19.33
2023-01-26T21:44:13.784Z,21.17
2023-01-26T21:46:40.717Z,21.00
2023-01-26T21:49:09.345Z,20.20
2023-01-26T21:51:55.016Z,20.80
2023-01-26T21:54:21.819Z,21.55
2023-01-26T21:56:48.294Z,21.02
2023-01-26T21:59:16.406Z,21.50
2023-01-26T22:01:46.983Z,20.08
2023-01-26T22:04:16.602Z,21.85
2023-01-26T22:06:43.462Z,20.65
2023-01-26T22:09:12.667Z,23.20
2023-01-26T22:11:39.654Z,21.42
2023-01-26T22:14:07.301Z,21.08
2023-01-26T22:16:33.779Z,18.65
2023-01-26T22:19:00.275Z,20.15
2023-01-26T22:21:26.696Z,21.15
2023-01-26T22:23:54.935Z,20.50
2023-01-26T22:26:22.701Z,21.25
2023-01-26T22:28:53.975Z,20.67
2023-01-26T22:31:26.959Z,20.38
2023-01-26T22:33:54.713Z,19.50
2023-01-26T22:36:22.244Z,20.67
2023-01-26T22:38:49.454Z,20.60
2023-01-26T22:41:21.489Z,22.02
2023-01-26T22:43:49.205Z,19.73
2023-01-26T22:46:17.489Z,19.30
2023-01-26T22:48:44.074Z,20.33
2023-01-26T22:51:21.815Z,20.85
2023-01-26T22:53:49.770Z,19.08
2023-01-26T22:56:16.696Z,20.33
2023-01-26T22:58:56.976Z,20.30
2023-01-26T23:03:53.106Z,18.83
2023-01-26T23:06:20.145Z,20.67
2023-01-26T23:08:46.554Z,18.63
2023-01-26T23:11:16.335Z,20.70
2023-01-26T23:13:44.581Z,19.45
2023-01-26T23:16:12.160Z,18.67
2023-01-26T23:18:38.692Z,20.17
2023-01-26T23:21:06.180Z,18.25
2023-01-26T23:23:32.658Z,18.60
2023-01-26T23:25:59.971Z,17.92
2023-01-26T23:28:32.088Z,18.98
2023-01-26T23:30:59.512Z,16.13
2023-01-26T23:33:28.700Z,16.45
2023-01-26T23:35:55.121Z,18.63
2023-01-26T23:38:23.454Z,16.85
2023-01-26T23:40:50.587Z,18.05
2023-01-26T23:43:17.900Z,16.45
2023-01-26T23:45:46.134Z,17.25
2023-01-26T23:48:13.064Z,15.90
2023-01-26T23:50:40.043Z,16.38
2023-01-26T23:53:06.842Z,16.90
2023-01-26T23:55:33.293Z,16.58
2023-01-26T23:57:59.896Z,17.13
